• Join FlightAware (Why Join?)
  • Login
  • US Flag 
11:24PM EDT


 

Airport Tracker/Info


-or-


 

Live Flight TrackerFlight Track Log ✈ VH-KEZ ✈ 30-Apr-2013 ✈ YNKA - YBRM / BME

Flight Track Log - Related Links

Times and Time Zones

All times are in EDT time to prevent confusion due to time zone crossing. See the VH-KEZ flight status page for this flight to view local times or setup timezone preferences in your user account.

Time Position Orientation Groundspeed Altitude Reporting Facility
EDT Latitude Longitude Course Direction KTS MPH feet Rate Location/Type
04:16AM -18.4666 124.6700 360° North 100  Level Aus ATC (Calculated)
04:16AM -18.4666 124.6700 282° West 300  Climbing Aus ATC (Calculated)
04:17AM -18.4509 124.5935 282° West 100 -240 Descending Aus ATC (Calculated)
04:19AM -18.4363 124.5234 282° West  Level FlightAware Approximate
04:20AM -18.4259 124.4733 282° West  Level FlightAware Approximate
04:20AM -18.4202 124.4457 282° West 300  Level Aus ATC (Calculated)
04:21AM -18.4155 124.4232 282° West  Level FlightAware Approximate
04:21AM -18.4059 124.3762 360° North 100  Level Aus ATC (Calculated)
04:22AM -18.4059 124.3762 282° West 300 300 Climbing Aus ATC (Calculated)
04:23AM -18.3927 124.3128 282° West  Level FlightAware Approximate
04:24AM -18.3888 124.2944 282° West  Level FlightAware Approximate
04:25AM -18.3783 124.2443 282° West  Level FlightAware Approximate
04:25AM -18.3641 124.1743 101° East 300  Level Aus ATC (Calculated)
04:26AM -18.3679 124.1943 282° West  Level FlightAware Approximate
04:27AM -18.3515 124.1142 282° West  Level FlightAware Approximate
04:28AM -18.3410 124.0642 282° West  Level FlightAware Approximate
04:28AM -18.3388 124.0524 136° Southeast 100  Level Aus ATC (Calculated)
04:28AM -18.3388 124.0524 283° West 300 3,960 Climbing Aus ATC (Calculated)
04:30AM -18.3261 123.9924 283° West  Level FlightAware Approximate
04:31AM -18.3156 123.9423 283° West  Level FlightAware Approximate
04:31AM -18.3150 123.9381 283° West 100  Level Aus ATC (Calculated)
04:33AM -18.2961 123.8489 283° West  Level FlightAware Approximate
04:33AM -18.2924 123.8315 360° North 100  Level Aus ATC (Calculated)
04:33AM -18.2924 123.8315 360° North 300  Climbing Aus ATC (Calculated)
04:34AM -18.2924 123.8315 283° West 100 -240 Descending Aus ATC (Calculated)
04:35AM -18.2772 123.7598 283° West  Level FlightAware Approximate
04:35AM -18.2924 123.8315 283° West 300  Level Aus ATC (Calculated)
04:37AM -18.2735 123.7423 283° West  Level FlightAware Approximate
04:38AM -18.2628 123.6923 283° West  Level FlightAware Approximate
04:39AM -18.2521 123.6423 283° West  Level FlightAware Approximate
04:40AM -18.2415 123.5923 283° West  Level FlightAware Approximate
04:41AM -18.2308 123.5424 283° West  Level FlightAware Approximate
04:42AM -18.2201 123.4924 283° West  Level FlightAware Approximate
04:43AM -18.2094 123.4424 283° West  Level FlightAware Approximate
04:43AM -18.2079 123.4300 283° West 100  Level Aus ATC (Calculated)
04:45AM -18.1914 123.3534 283° West  Level FlightAware Approximate
04:46AM -18.1806 123.3035 283° West  Level FlightAware Approximate
04:47AM -18.1698 123.2535 283° West  Level FlightAware Approximate
04:48AM -18.1590 123.2036 283° West  Level FlightAware Approximate
04:49AM -18.1482 123.1537 283° West  Level FlightAware Approximate
04:50AM -18.1373 123.1038 283° West  Level FlightAware Approximate
04:50AM -18.1269 123.0563 281° West 100  Level Aus ATC (Calculated)
04:51AM -18.1264 123.0539 283° West  Level FlightAware Approximate
04:52AM -18.1153 123.0031 283° West  Level FlightAware Approximate
04:53AM -18.1044 122.9532 283° West  Level FlightAware Approximate
04:53AM -18.0933 122.9022 103° East 300  Level Aus ATC (Calculated)
04:54AM -18.0935 122.9033 283° West  Level FlightAware Approximate
04:55AM -18.0764 122.8249 283° West  Level FlightAware Approximate
04:55AM -18.0755 122.8178 283° West 100  Level Aus ATC (Calculated)
04:57AM -18.0557 122.7281 283° West  Level FlightAware Approximate
04:57AM -18.0594 122.7449 283° West 300  Level Aus ATC (Calculated)
04:59AM -18.0393 122.6535 283° West  Level FlightAware Approximate
05:00AM -18.0282 122.6037 283° West  Level FlightAware Approximate
05:01AM -18.0172 122.5539 283° West  Level FlightAware Approximate
05:02AM -18.0061 122.5041 283° West  Level FlightAware Approximate
05:03AM -17.9951 122.4542 283° West  Level FlightAware Approximate
05:04AM -17.9840 122.4044 283° West  Level FlightAware Approximate
05:05AM -17.9729 122.3546 283° West  Level FlightAware Approximate
05:05AM -17.9496 122.2277 360° North 100  Level Aus ATC (Calculated)
05:05AM -17.9496 122.2277 99° East 100  Level Aus ATC (Calculated)
05:06AM -17.9618 122.3048 283° West  Level FlightAware Approximate
05:07AM -17.9447 122.2317 65° Northeast  Level Estimated
05:08AM -17.9447 122.2317 115° Southeast  Level Estimated
05:09AM -17.9447 122.2317 115° Southeast  Level Estimated
05:10AM -17.9447 122.2317 115° Southeast  Level Estimated
05:11AM -17.9447 122.2317 115° Southeast  Level Estimated
05:12AM -17.9463 122.2353 282° West  Level FlightAware Approximate
05:13AM -17.9463 122.2353 282° West  Level FlightAware Approximate
05:14AM -17.9447 122.2317 282° West  Level Estimated
05:15AM -17.9463 122.2353 282° West  Level FlightAware Approximate
05:16AM -17.9447 122.2317 282° West  Level Estimated
05:17AM -17.9463 122.2353 282° West  Level FlightAware Approximate
05:18AM -17.9447 122.2317 282° West  Level Estimated
05:19AM -17.9463 122.2353 282° West  Level FlightAware Approximate
05:20AM -17.9447 122.2317 282° West  Level Estimated
05:21AM -17.9463 122.2353 282° West  Level FlightAware Approximate
05:22AM -17.9447 122.2317 282° West  Level Estimated